KFET/FET METAR and TAF weather

Enter ICAO airport designator
Station Type Date Time Source
KFET METAR 2019/07/17 18:35 UTC NOAA

KFET 171835Z AUTO 06011KT 10SM CLR 30/23 A2980 RMK AO2 T03030233


Station Type Date Time Source
KFET Decoded METAR 2019/07/17 18:35 UTC NOAA

Fremont Municipal Airport, NE, United States (KFET) 41-27N 096-31W
Jul 17, 2019 - 02:35 PM EDT / 2019.07.17 1835 UTC
Wind: from the ENE (060 degrees) at 13 MPH (11 KT):0
Visibility: 10 mile(s):0
Sky conditions: clear
Temperature: 86.5 F (30.3 C)
Heat index: 94.5 F (34.7 C):1
Dew Point: 73.9 F (23.3 C)
Relative Humidity: 66%
Pressure (altimeter): 29.8 in. Hg (1009 hPa)
ob: KFET 171835Z AUTO 06011KT 10SM CLR 30/23 A2980 RMK AO2 T03030233
cycle: 18

Station Type Date Time Source
KFET TAF UTC NOAA

Error!

Example: see airport list